Time;durP1;ratioP1;P1;durP2;ratioP2;P2;SDS_P1;SDS_P2;PMS_P1;PMS_P2;Temp;Humidity;BMP_temperature;BMP_pressure;BME280_temperature;BME280_humidity;BME280_pressure;Samples;Min_cycle;Max_cycle;Signal;HPM_P1;HPM_P2
2024/02/19 00:01:51;;;;;;;5.07;2.15;;;6.80;99.90;;;;;;5048082;28;20083;-68
2024/02/19 00:04:17;;;;;;;4.15;2.00;;;6.80;99.90;;;;;;5051217;28;20339;-69
2024/02/19 00:06:42;;;;;;;4.07;1.85;;;6.80;99.90;;;;;;5054421;28;20206;-68
2024/02/19 00:09:08;;;;;;;4.25;2.33;;;6.80;99.90;;;;;;5051829;28;20208;-68
2024/02/19 00:11:33;;;;;;;4.28;2.30;;;6.80;99.90;;;;;;5045450;28;20420;-68
2024/02/19 00:13:59;;;;;;;4.82;2.30;;;6.80;99.90;;;;;;5048159;28;20027;-69
2024/02/19 00:16:24;;;;;;;4.75;2.40;;;6.80;99.90;;;;;;5050188;28;20099;-69
2024/02/19 00:18:50;;;;;;;4.68;2.60;;;6.80;99.90;;;;;;5044366;28;20077;-68
2024/02/19 00:21:18;;;;;;;3.85;1.80;;;6.80;99.90;;;;;;5049447;28;20151;-68
2024/02/19 00:23:44;;;;;;;4.22;2.42;;;6.80;99.90;;;;;;5048241;28;20121;-69
2024/02/19 00:26:09;;;;;;;3.47;1.98;;;6.80;99.90;;;;;;5052560;28;20025;-68
2024/02/19 00:28:35;;;;;;;5.03;2.13;;;6.80;99.90;;;;;;5057019;28;20084;-69
2024/02/19 00:31:00;;;;;;;5.15;2.33;;;6.80;99.90;;;;;;5053016;28;20037;-68
2024/02/19 00:33:26;;;;;;;4.45;2.17;;;6.80;99.90;;;;;;5048867;28;20136;-69
2024/02/19 00:35:51;;;;;;;5.55;2.60;;;6.80;99.90;;;;;;5049355;28;20182;-68
2024/02/19 00:38:18;;;;;;;4.57;2.17;;;6.80;99.90;;;;;;5050579;28;20048;-68
2024/02/19 00:40:43;;;;;;;3.72;1.95;;;6.80;99.90;;;;;;5049548;28;20161;-68
2024/02/19 00:43:09;;;;;;;4.80;1.70;;;6.80;99.90;;;;;;5052247;28;20469;-69
2024/02/19 00:45:34;;;;;;;4.35;1.90;;;6.80;99.90;;;;;;5049977;28;20073;-68
2024/02/19 00:48:00;;;;;;;2.97;1.80;;;6.80;99.90;;;;;;5050809;28;20086;-68
2024/02/19 00:50:25;;;;;;;3.33;1.20;;;6.70;99.90;;;;;;5045406;28;20387;-68
2024/02/19 00:52:50;;;;;;;2.63;1.23;;;6.70;99.90;;;;;;5051506;28;20032;-67
2024/02/19 00:55:20;;;;;;;1.80;1.13;;;6.60;99.90;;;;;;5035927;28;20044;-67
2024/02/19 00:57:46;;;;;;;0.87;0.70;;;6.50;99.90;;;;;;5046477;28;20684;-68
2024/02/19 01:00:12;;;;;;;1.63;0.68;;;6.40;99.90;;;;;;5049474;28;20165;-67
2024/02/19 01:02:37;;;;;;;1.00;0.50;;;6.20;99.90;;;;;;5054241;28;20043;-67
2024/02/19 01:05:03;;;;;;;0.60;0.55;;;6.20;99.90;;;;;;5053144;28;20114;-67
2024/02/19 01:07:29;;;;;;;0.60;0.60;;;6.20;99.90;;;;;;5051435;28;20044;-68
2024/02/19 01:09:54;;;;;;;0.40;0.40;;;6.10;99.90;;;;;;5045602;28;20093;-67
2024/02/19 01:12:19;;;;;;;0.70;0.47;;;6.00;99.90;;;;;;5049747;28;20069;-67
2024/02/19 01:14:45;;;;;;;0.32;0.32;;;5.90;99.90;;;;;;5049233;28;20516;-67
2024/02/19 01:17:10;;;;;;;0.32;0.32;;;5.90;99.90;;;;;;5048107;28;20108;-67
2024/02/19 01:19:36;;;;;;;0.60;0.40;;;5.80;99.90;;;;;;5050421;28;20037;-67
2024/02/19 01:22:03;;;;;;;0.20;0.20;;;5.90;99.90;;;;;;5048695;28;20025;-67
2024/02/19 01:24:28;;;;;;;0.38;0.28;;;5.80;99.90;;;;;;5050208;28;20028;-68
2024/02/19 01:26:54;;;;;;;0.20;0.20;;;5.70;99.90;;;;;;5053680;28;20466;-67
2024/02/19 01:29:20;;;;;;;0.57;0.50;;;5.70;99.90;;;;;;5046432;28;20132;-68
2024/02/19 01:31:45;;;;;;;0.50;0.32;;;5.70;99.90;;;;;;5048978;28;20037;-68
2024/02/19 01:34:11;;;;;;;0.80;0.63;;;5.70;99.90;;;;;;5045868;28;20036;-67
2024/02/19 01:36:37;;;;;;;0.40;0.40;;;5.70;99.90;;;;;;5054335;28;20488;-68
2024/02/19 01:39:02;;;;;;;0.65;0.57;;;5.70;99.90;;;;;;5051279;28;20063;-68
2024/02/19 01:41:28;;;;;;;0.90;0.52;;;5.60;99.90;;;;;;5048556;28;20099;-68
2024/02/19 01:43:54;;;;;;;0.50;0.50;;;5.60;99.90;;;;;;5048111;28;20463;-68
2024/02/19 01:46:20;;;;;;;0.35;0.35;;;5.60;99.90;;;;;;5044436;28;20025;-67
2024/02/19 01:48:45;;;;;;;0.50;0.50;;;5.60;99.90;;;;;;5047074;28;20450;-68
2024/02/19 01:51:11;;;;;;;1.13;0.60;;;5.60;99.90;;;;;;5050753;28;20037;-67
2024/02/19 01:53:37;;;;;;;0.55;0.55;;;5.60;99.90;;;;;;5051348;28;20148;-68
2024/02/19 01:56:04;;;;;;;1.52;0.40;;;5.60;99.90;;;;;;5053245;28;20028;-67
2024/02/19 01:58:30;;;;;;;0.35;0.35;;;5.60;99.90;;;;;;5047662;28;20601;-68
2024/02/19 02:00:58;;;;;;;1.25;0.60;;;5.60;99.90;;;;;;5030837;28;20458;-67
2024/02/19 02:03:26;;;;;;;0.45;0.40;;;5.50;99.90;;;;;;5048585;28;20393;-68
2024/02/19 02:05:52;;;;;;;0.50;0.50;;;5.50;99.90;;;;;;5050434;28;20108;-67
2024/02/19 02:08:18;;;;;;;0.65;0.45;;;5.60;99.90;;;;;;5047270;28;20120;-68
2024/02/19 02:10:43;;;;;;;0.45;0.38;;;5.50;99.90;;;;;;5050445;28;20108;-68
2024/02/19 02:13:09;;;;;;;0.55;0.25;;;5.50;99.90;;;;;;5047033;28;20067;-68
2024/02/19 02:15:35;;;;;;;0.43;0.35;;;5.50;99.90;;;;;;5052268;28;20190;-68
2024/02/19 02:18:00;;;;;;;0.40;0.35;;;5.50;99.90;;;;;;5056381;28;20094;-68
2024/02/19 02:20:26;;;;;;;0.82;0.30;;;5.40;99.90;;;;;;5053118;28;20041;-68
2024/02/19 02:22:52;;;;;;;0.50;0.38;;;5.40;99.80;;;;;;5044379;28;20390;-67
2024/02/19 02:25:18;;;;;;;0.28;0.28;;;5.40;99.70;;;;;;5052818;28;20032;-68
2024/02/19 02:27:43;;;;;;;0.40;0.30;;;5.40;99.40;;;;;;5047498;28;20041;-67
2024/02/19 02:30:09;;;;;;;1.45;0.25;;;5.40;99.40;;;;;;5033563;28;20183;-68
2024/02/19 02:32:34;;;;;;;0.17;0.17;;;5.40;99.30;;;;;;5049343;28;20044;-67
2024/02/19 02:35:01;;;;;;;0.17;0.17;;;5.40;98.70;;;;;;5043624;28;20035;-68
2024/02/19 02:37:26;;;;;;;0.20;0.20;;;5.40;98.90;;;;;;5045295;28;20086;-68
2024/02/19 02:39:52;;;;;;;0.20;0.20;;;5.40;99.00;;;;;;5048675;28;20116;-68
2024/02/19 02:42:18;;;;;;;0.30;0.30;;;5.40;98.90;;;;;;5045422;28;20335;-68
2024/02/19 02:44:43;;;;;;;0.75;0.30;;;5.30;99.00;;;;;;5045744;28;20029;-67
2024/02/19 02:47:09;;;;;;;0.20;0.20;;;5.40;99.10;;;;;;5045290;28;20151;-67
2024/02/19 02:49:34;;;;;;;1.23;0.43;;;5.30;99.10;;;;;;5045842;28;20041;-67
2024/02/19 02:52:00;;;;;;;0.88;0.25;;;5.30;99.30;;;;;;5044807;28;20126;-68
2024/02/19 02:54:25;;;;;;;0.60;0.35;;;5.30;99.50;;;;;;5046588;28;20036;-68
2024/02/19 02:56:51;;;;;;;0.32;0.30;;;5.30;99.60;;;;;;5042345;28;20052;-67
2024/02/19 02:59:16;;;;;;;0.80;0.30;;;5.30;99.70;;;;;;5046425;28;20048;-68
2024/02/19 03:01:42;;;;;;;0.30;0.30;;;5.20;99.70;;;;;;5053099;28;20226;-68
2024/02/19 03:04:07;;;;;;;0.68;0.68;;;5.20;99.80;;;;;;5028264;28;20080;-68
2024/02/19 03:06:33;;;;;;;0.82;0.57;;;5.20;99.90;;;;;;5042640;28;20036;-67
2024/02/19 03:08:58;;;;;;;1.27;0.77;;;5.20;99.80;;;;;;5048850;28;20040;-68
2024/02/19 03:11:24;;;;;;;0.73;0.63;;;5.20;99.80;;;;;;5043320;28;20032;-68
2024/02/19 03:13:49;;;;;;;0.75;0.43;;;5.20;99.70;;;;;;5046095;28;20419;-68
2024/02/19 03:16:18;;;;;;;1.75;0.90;;;5.20;99.70;;;;;;5041293;28;20048;-68
2024/02/19 03:18:43;;;;;;;4.28;1.00;;;5.30;99.50;;;;;;5042971;28;20140;-67
2024/02/19 03:21:15;;;;;;;1.73;0.95;;;5.20;99.40;;;;;;5035596;28;20104;-68
2024/02/19 03:23:49;;;;;;;1.90;1.27;;;5.30;99.40;;;;;;5045658;28;20103;-68
2024/02/19 03:26:15;;;;;;;1.52;1.10;;;5.30;99.40;;;;;;5043929;28;20432;-68
2024/02/19 03:28:40;;;;;;;1.40;0.80;;;5.30;99.30;;;;;;5044042;28;20063;-67
2024/02/19 03:31:06;;;;;;;1.20;1.00;;;5.30;99.30;;;;;;5044373;28;20075;-68
2024/02/19 03:33:31;;;;;;;1.63;0.70;;;5.30;99.20;;;;;;5043713;28;20039;-68
2024/02/19 03:35:57;;;;;;;1.65;0.75;;;5.30;99.20;;;;;;5040272;28;20110;-68
2024/02/19 03:38:24;;;;;;;1.23;0.75;;;5.30;99.20;;;;;;5028405;28;20025;-68
2024/02/19 03:40:49;;;;;;;1.17;0.60;;;5.20;99.20;;;;;;5029435;28;20053;-68
2024/02/19 03:43:15;;;;;;;1.83;0.70;;;5.20;99.30;;;;;;5044214;28;20513;-68
2024/02/19 03:45:40;;;;;;;2.30;1.13;;;5.20;99.60;;;;;;5045979;28;20025;-68
2024/02/19 03:48:06;;;;;;;1.25;0.60;;;5.20;99.60;;;;;;5045304;28;20192;-68
2024/02/19 03:50:32;;;;;;;0.63;0.63;;;5.20;99.70;;;;;;5039224;28;20044;-68
2024/02/19 03:52:57;;;;;;;0.85;0.50;;;5.10;99.80;;;;;;5045441;28;20320;-68
2024/02/19 03:55:23;;;;;;;1.30;0.40;;;5.10;99.80;;;;;;5047323;28;20029;-68
2024/02/19 03:57:48;;;;;;;0.30;0.30;;;5.10;99.60;;;;;;5039251;28;20025;-69
2024/02/19 04:00:14;;;;;;;0.30;0.30;;;5.10;99.20;;;;;;5041106;28;20475;-68
2024/02/19 04:02:42;;;;;;;0.52;0.50;;;5.10;99.10;;;;;;5051511;28;20044;-68
2024/02/19 04:05:08;;;;;;;0.68;0.30;;;5.10;99.10;;;;;;5052792;28;20033;-68
2024/02/19 04:07:33;;;;;;;0.63;0.30;;;5.10;99.10;;;;;;5052068;28;20454;-66
2024/02/19 04:09:58;;;;;;;0.57;0.40;;;5.10;99.40;;;;;;5046793;28;20052;-66
2024/02/19 04:12:24;;;;;;;0.22;0.22;;;5.00;99.70;;;;;;5050131;28;20408;-67
2024/02/19 04:14:50;;;;;;;0.43;0.43;;;5.10;99.90;;;;;;5044785;28;20114;-67
2024/02/19 04:17:15;;;;;;;0.20;0.20;;;5.00;99.90;;;;;;5050008;28;20090;-67
2024/02/19 04:19:40;;;;;;;0.22;0.22;;;5.00;99.90;;;;;;5052484;28;20128;-67
2024/02/19 04:22:06;;;;;;;0.30;0.30;;;5.00;99.90;;;;;;5047640;28;20531;-67
2024/02/19 04:24:32;;;;;;;0.22;0.22;;;5.10;99.90;;;;;;5052521;28;20021;-68
2024/02/19 04:26:57;;;;;;;0.20;0.20;;;5.00;99.90;;;;;;5046454;28;20098;-67
2024/02/19 04:29:22;;;;;;;0.40;0.28;;;5.10;99.90;;;;;;5052904;28;20032;-67
2024/02/19 04:31:48;;;;;;;0.30;0.20;;;5.00;99.90;;;;;;5047345;28;20412;-67
2024/02/19 04:34:13;;;;;;;0.20;0.20;;;5.10;99.90;;;;;;5047520;28;20108;-68
2024/02/19 04:36:39;;;;;;;0.30;0.25;;;5.10;99.90;;;;;;5044697;28;20037;-67
2024/02/19 04:39:04;;;;;;;0.28;0.28;;;5.10;99.90;;;;;;5053472;28;20020;-67
2024/02/19 04:41:30;;;;;;;3.10;0.95;;;5.10;99.90;;;;;;5048903;28;20119;-68
2024/02/19 04:43:56;;;;;;;1.85;0.55;;;5.10;99.90;;;;;;5048463;28;20485;-67
2024/02/19 04:46:21;;;;;;;0.30;0.30;;;5.10;99.90;;;;;;5054603;28;20091;-67
2024/02/19 04:48:47;;;;;;;0.50;0.40;;;5.10;99.90;;;;;;5049167;28;20040;-66
2024/02/19 04:51:12;;;;;;;1.55;0.65;;;5.10;99.90;;;;;;5046764;28;20064;-67
2024/02/19 04:53:38;;;;;;;0.77;0.45;;;5.10;99.90;;;;;;5044930;28;20420;-66
2024/02/19 04:56:03;;;;;;;1.13;0.63;;;5.20;99.90;;;;;;5048877;28;20090;-67
2024/02/19 04:58:29;;;;;;;0.70;0.40;;;5.20;99.90;;;;;;5051034;28;20109;-68
2024/02/19 05:00:54;;;;;;;0.28;0.28;;;5.10;99.90;;;;;;5048207;28;20036;-68
2024/02/19 05:03:20;;;;;;;0.40;0.40;;;5.20;99.90;;;;;;5049209;28;20024;-68
2024/02/19 05:05:46;;;;;;;0.35;0.32;;;5.20;99.90;;;;;;5047195;28;20091;-68
2024/02/19 05:08:11;;;;;;;0.30;0.30;;;5.20;99.90;;;;;;5049992;28;20036;-67
2024/02/19 05:10:37;;;;;;;0.25;0.25;;;5.20;99.90;;;;;;5030585;28;20109;-68
2024/02/19 05:13:02;;;;;;;0.30;0.30;;;5.20;99.90;;;;;;5048240;28;20025;-67
2024/02/19 05:15:28;;;;;;;0.40;0.40;;;5.20;99.90;;;;;;5052341;28;20143;-67
2024/02/19 05:17:53;;;;;;;0.17;0.13;;;5.20;99.90;;;;;;5051786;28;20041;-68
2024/02/19 05:20:19;;;;;;;0.82;0.50;;;5.20;99.90;;;;;;5048149;28;20246;-68
2024/02/19 05:22:47;;;;;;;0.38;0.30;;;5.20;99.90;;;;;;5047870;28;20029;-68
2024/02/19 05:25:13;;;;;;;0.32;0.30;;;5.30;99.90;;;;;;5048281;28;20085;-67
2024/02/19 05:27:38;;;;;;;0.52;0.40;;;5.30;99.90;;;;;;5045814;28;20099;-68
2024/02/19 05:30:04;;;;;;;1.25;0.55;;;5.30;99.90;;;;;;5051837;28;20057;-66
2024/02/19 05:32:30;;;;;;;1.17;0.50;;;5.30;99.90;;;;;;5050943;28;20036;-65
2024/02/19 05:34:55;;;;;;;0.40;0.30;;;5.30;99.90;;;;;;5044122;28;20375;-65
2024/02/19 05:37:21;;;;;;;0.30;0.30;;;5.30;99.90;;;;;;5050056;28;20035;-65
2024/02/19 05:39:46;;;;;;;0.82;0.40;;;5.30;99.90;;;;;;5046513;28;20044;-66
2024/02/19 05:42:12;;;;;;;0.85;0.40;;;5.30;99.90;;;;;;5047145;28;20332;-65
2024/02/19 05:44:37;;;;;;;0.52;0.30;;;5.40;99.90;;;;;;5049518;28;20052;-66
2024/02/19 05:47:03;;;;;;;0.30;0.30;;;5.40;99.90;;;;;;5054167;28;20437;-65
2024/02/19 05:49:28;;;;;;;0.20;0.20;;;5.40;99.90;;;;;;5053357;28;20093;-66
2024/02/19 05:51:54;;;;;;;0.63;0.32;;;5.40;99.90;;;;;;5049163;28;20028;-65
2024/02/19 05:54:23;;;;;;;0.40;0.40;;;5.40;99.90;;;;;;5051778;28;20394;-65
2024/02/19 05:56:48;;;;;;;0.65;0.43;;;5.50;99.90;;;;;;5047756;28;20035;-65
2024/02/19 05:59:14;;;;;;;0.28;0.28;;;5.50;99.90;;;;;;5051279;28;20133;-65
2024/02/19 06:01:39;;;;;;;0.50;0.40;;;5.50;99.90;;;;;;5049348;28;20041;-65
2024/02/19 06:04:05;;;;;;;0.95;0.60;;;5.50;99.90;;;;;;5045548;28;20029;-64
2024/02/19 06:06:31;;;;;;;0.85;0.40;;;5.50;99.90;;;;;;5052969;28;20084;-66
2024/02/19 06:08:56;;;;;;;0.43;0.25;;;5.50;99.90;;;;;;5033828;28;20385;-65
2024/02/19 06:11:22;;;;;;;0.20;0.20;;;5.50;99.90;;;;;;5052152;28;20478;-70
2024/02/19 06:13:48;;;;;;;0.30;0.30;;;5.50;99.90;;;;;;5052257;28;20048;-65
2024/02/19 06:16:16;;;;;;;0.20;0.20;;;5.50;99.90;;;;;;5047207;28;20106;-65
2024/02/19 06:18:42;;;;;;;1.55;0.40;;;5.50;99.90;;;;;;5055053;28;20033;-65
2024/02/19 06:21:07;;;;;;;0.30;0.30;;;5.50;99.90;;;;;;5047323;28;20052;-67
2024/02/19 06:23:33;;;;;;;0.75;0.30;;;5.50;99.90;;;;;;5044605;28;20040;-65
2024/02/19 06:26:00;;;;;;;0.45;0.30;;;5.60;99.90;;;;;;5047136;28;20044;-65
2024/02/19 06:28:25;;;;;;;0.22;0.22;;;5.60;99.90;;;;;;5041455;28;20029;-65
2024/02/19 06:30:51;;;;;;;0.52;0.40;;;5.60;99.90;;;;;;5048646;28;20126;-66
2024/02/19 06:33:16;;;;;;;0.38;0.38;;;5.60;99.90;;;;;;5043361;28;20173;-65
2024/02/19 06:35:42;;;;;;;0.43;0.35;;;5.60;99.90;;;;;;5042038;28;20036;-66
2024/02/19 06:38:07;;;;;;;0.85;0.40;;;5.60;99.90;;;;;;5043739;28;20048;-65
2024/02/19 06:40:33;;;;;;;0.38;0.35;;;5.60;99.90;;;;;;5042806;28;20029;-65
2024/02/19 06:42:58;;;;;;;0.50;0.40;;;5.70;99.90;;;;;;5044242;28;20139;-66
2024/02/19 06:45:24;;;;;;;1.02;0.43;;;5.60;99.90;;;;;;5044476;28;20377;-65
2024/02/19 06:47:50;;;;;;;0.50;0.50;;;5.70;99.90;;;;;;5043264;28;20028;-65
2024/02/19 06:50:15;;;;;;;1.08;0.63;;;5.70;99.90;;;;;;5042538;28;20424;-66
2024/02/19 06:52:45;;;;;;;0.85;0.50;;;5.70;99.90;;;;;;5046055;28;20028;-68
2024/02/19 06:55:15;;;;;;;0.30;0.30;;;5.70;99.90;;;;;;5044176;28;20028;-68
2024/02/19 06:57:40;;;;;;;2.30;0.57;;;5.70;99.90;;;;;;5042127;28;20073;-68
2024/02/19 07:00:08;;;;;;;0.73;0.55;;;5.80;99.90;;;;;;5045450;28;20035;-66
2024/02/19 07:02:33;;;;;;;0.60;0.40;;;5.80;99.90;;;;;;5042861;28;20538;-67
2024/02/19 07:04:59;;;;;;;0.45;0.35;;;5.80;99.90;;;;;;5041703;28;20108;-67
2024/02/19 07:07:25;;;;;;;4.00;0.63;;;5.80;99.90;;;;;;5047365;28;20096;-67
2024/02/19 07:09:51;;;;;;;0.40;0.40;;;5.80;99.90;;;;;;5034530;28;20541;-65
2024/02/19 07:12:16;;;;;;;0.65;0.50;;;5.80;99.90;;;;;;5039489;28;20198;-65
2024/02/19 07:14:42;;;;;;;0.50;0.50;;;5.80;99.90;;;;;;5056267;28;20032;-65
2024/02/19 07:17:07;;;;;;;0.47;0.47;;;5.90;99.90;;;;;;5047664;28;20135;-65
2024/02/19 07:19:33;;;;;;;0.63;0.45;;;5.90;99.90;;;;;;5042148;28;20160;-65
2024/02/19 07:21:58;;;;;;;1.10;0.50;;;5.90;99.90;;;;;;5042554;28;20409;-65
2024/02/19 07:24:26;;;;;;;0.50;0.50;;;6.00;99.90;;;;;;5043242;28;20082;-65
2024/02/19 07:26:51;;;;;;;0.30;0.30;;;6.00;99.90;;;;;;5040739;28;20029;-65
2024/02/19 07:29:18;;;;;;;0.85;0.50;;;6.00;99.90;;;;;;5047531;28;20041;-66
2024/02/19 07:31:44;;;;;;;0.85;0.50;;;6.00;99.90;;;;;;5045476;28;20029;-66
2024/02/19 07:34:09;;;;;;;1.17;0.63;;;6.10;99.90;;;;;;5040886;28;20067;-65
2024/02/19 07:36:35;;;;;;;1.00;0.50;;;6.10;99.90;;;;;;5042792;28;20086;-65
2024/02/19 07:39:00;;;;;;;1.00;0.52;;;6.10;99.90;;;;;;5042908;28;20040;-65
2024/02/19 07:41:26;;;;;;;0.50;0.32;;;6.10;99.90;;;;;;5026033;28;20116;-65
2024/02/19 07:43:51;;;;;;;1.92;0.80;;;6.10;99.90;;;;;;5044352;28;20466;-65
2024/02/19 07:46:18;;;;;;;0.45;0.45;;;6.20;99.90;;;;;;5046730;28;20040;-67
2024/02/19 07:48:44;;;;;;;0.90;0.60;;;6.20;99.90;;;;;;5050349;28;20116;-65
2024/02/19 07:51:09;;;;;;;0.57;0.50;;;6.20;99.90;;;;;;5049349;28;20776;-65
2024/02/19 07:53:35;;;;;;;0.35;0.35;;;6.20;99.90;;;;;;5041195;28;20139;-65
2024/02/19 07:56:05;;;;;;;1.48;0.63;;;6.20;99.90;;;;;;5045864;28;20500;-65
2024/02/19 07:58:30;;;;;;;0.85;0.63;;;6.20;99.90;;;;;;5053233;28;20051;-65
2024/02/19 08:00:56;;;;;;;1.08;0.68;;;6.30;99.90;;;;;;5049270;28;20147;-65
2024/02/19 08:03:21;;;;;;;2.53;0.90;;;6.30;99.90;;;;;;5048114;28;20052;-65
2024/02/19 08:05:48;;;;;;;0.82;0.60;;;6.30;99.90;;;;;;5046703;28;20450;-66
2024/02/19 08:08:14;;;;;;;2.35;0.77;;;6.30;99.90;;;;;;5050285;28;20161;-66
2024/02/19 08:10:39;;;;;;;2.17;0.80;;;6.40;99.90;;;;;;5049405;28;20469;-65
2024/02/19 08:13:07;;;;;;;1.38;0.90;;;6.40;99.90;;;;;;5045297;28;20129;-66
2024/02/19 08:15:33;;;;;;;1.73;0.75;;;6.40;99.90;;;;;;5046877;28;20060;-65
2024/02/19 08:17:58;;;;;;;2.67;1.05;;;6.40;99.90;;;;;;5052321;28;20033;-65
2024/02/19 08:20:24;;;;;;;1.60;0.75;;;6.50;99.90;;;;;;5020397;28;20151;-66
2024/02/19 08:22:51;;;;;;;1.25;0.98;;;6.50;99.90;;;;;;5044598;28;20104;-65
2024/02/19 08:25:16;;;;;;;2.63;1.10;;;6.60;99.90;;;;;;5031110;28;20477;-65
2024/02/19 08:27:42;;;;;;;2.20;0.95;;;6.60;99.90;;;;;;5046930;28;20525;-65
2024/02/19 08:30:07;;;;;;;1.70;0.90;;;6.60;99.90;;;;;;5046193;28;20044;-66
2024/02/19 08:32:33;;;;;;;1.65;0.88;;;6.70;99.90;;;;;;5044479;28;20352;-65
2024/02/19 08:34:58;;;;;;;1.73;0.80;;;6.70;99.90;;;;;;5036736;28;20451;-67
2024/02/19 08:37:24;;;;;;;2.75;1.52;;;6.70;99.90;;;;;;5045374;28;20036;-66
2024/02/19 08:39:49;;;;;;;2.30;1.05;;;6.80;99.90;;;;;;5042889;28;20041;-66
2024/02/19 08:42:15;;;;;;;1.75;0.77;;;6.80;99.90;;;;;;5047702;28;20074;-65
2024/02/19 08:44:40;;;;;;;2.47;0.95;;;6.90;99.90;;;;;;5049385;28;20033;-66
2024/02/19 08:47:07;;;;;;;2.17;1.13;;;6.90;99.90;;;;;;5028082;28;20076;-65
2024/02/19 08:49:33;;;;;;;1.33;0.77;;;6.90;99.90;;;;;;5052832;28;20029;-65
2024/02/19 08:51:59;;;;;;;2.08;1.20;;;7.00;99.90;;;;;;5046666;28;20132;-65
2024/02/19 08:54:24;;;;;;;2.15;1.00;;;7.00;99.90;;;;;;5046497;28;20394;-66
2024/02/19 08:56:50;;;;;;;4.72;1.48;;;7.00;99.90;;;;;;5042256;28;20113;-65
2024/02/19 08:59:15;;;;;;;2.28;1.02;;;7.00;99.90;;;;;;5047233;28;20063;-66
2024/02/19 09:01:41;;;;;;;1.05;0.80;;;7.10;99.90;;;;;;5044444;28;20110;-66
2024/02/19 09:04:08;;;;;;;1.30;0.80;;;7.10;99.90;;;;;;5045204;28;20053;-66
2024/02/19 09:06:33;;;;;;;2.13;0.80;;;7.10;99.90;;;;;;5044741;28;20084;-65
2024/02/19 09:09:00;;;;;;;3.58;0.90;;;7.10;99.90;;;;;;5043294;28;20120;-67
2024/02/19 09:11:25;;;;;;;1.85;0.80;;;7.10;99.90;;;;;;5043008;28;20029;-66
2024/02/19 09:13:51;;;;;;;1.33;0.80;;;7.10;99.90;;;;;;5041276;28;20030;-65
2024/02/19 09:16:16;;;;;;;0.98;0.68;;;7.20;99.90;;;;;;5045983;28;20064;-65
2024/02/19 09:18:43;;;;;;;3.65;0.80;;;7.20;99.90;;;;;;5046985;28;20621;-66
2024/02/19 09:21:09;;;;;;;1.05;0.60;;;7.20;99.90;;;;;;5041257;28;20366;-65
2024/02/19 09:23:35;;;;;;;0.45;0.45;;;7.20;99.90;;;;;;5044415;28;20112;-66
2024/02/19 09:26:01;;;;;;;0.22;0.22;;;7.30;99.90;;;;;;5042468;28;20351;-68
2024/02/19 09:28:27;;;;;;;1.05;0.77;;;7.20;99.90;;;;;;5023133;28;20029;-66
2024/02/19 09:30:53;;;;;;;2.72;0.85;;;7.20;99.90;;;;;;5046831;28;20043;-65
2024/02/19 09:33:19;;;;;;;1.88;1.38;;;7.30;99.90;;;;;;5046170;28;20128;-65
2024/02/19 09:35:44;;;;;;;1.15;0.80;;;7.30;99.90;;;;;;5044079;28;20086;-65
2024/02/19 09:38:10;;;;;;;1.58;0.73;;;7.30;99.90;;;;;;5043952;28;20132;-66
2024/02/19 09:40:36;;;;;;;0.95;0.52;;;7.30;99.90;;;;;;5045591;28;20037;-66
2024/02/19 09:43:04;;;;;;;3.28;1.00;;;7.40;99.90;;;;;;5046831;28;20119;-68
2024/02/19 09:45:30;;;;;;;0.52;0.40;;;7.30;99.90;;;;;;5043563;28;20655;-67
2024/02/19 09:48:00;;;;;;;1.33;0.73;;;7.40;99.90;;;;;;5045628;28;20060;-67
2024/02/19 09:50:28;;;;;;;1.95;0.80;;;7.40;99.90;;;;;;5045616;28;20125;-67
2024/02/19 09:53:02;;;;;;;0.88;0.45;;;7.40;99.90;;;;;;5040965;28;20360;-67
2024/02/19 09:55:28;;;;;;;0.73;0.55;;;7.60;99.90;;;;;;5044995;28;20079;-67
2024/02/19 09:57:56;;;;;;;1.45;0.68;;;7.60;99.90;;;;;;5051313;28;20156;-66
2024/02/19 10:00:21;;;;;;;0.93;0.40;;;7.60;99.90;;;;;;5045848;28;20028;-67
2024/02/19 10:02:47;;;;;;;1.15;0.68;;;7.70;99.90;;;;;;5045573;28;20032;-67
2024/02/19 10:05:12;;;;;;;0.63;0.52;;;7.80;99.90;;;;;;5043818;28;20025;-67
2024/02/19 10:07:39;;;;;;;1.00;0.52;;;7.70;99.90;;;;;;5045861;28;20037;-66
2024/02/19 10:10:06;;;;;;;0.98;0.65;;;7.80;99.90;;;;;;5042291;28;20068;-66
2024/02/19 10:12:33;;;;;;;0.35;0.35;;;7.80;99.90;;;;;;5044261;28;20040;-65
2024/02/19 10:14:59;;;;;;;0.35;0.30;;;7.80;99.90;;;;;;5045264;28;20052;-67
2024/02/19 10:17:28;;;;;;;1.15;0.70;;;7.80;99.90;;;;;;5041345;28;20087;-65
2024/02/19 10:20:01;;;;;;;0.50;0.50;;;7.80;99.90;;;;;;5045560;28;20370;-66
2024/02/19 10:22:27;;;;;;;2.40;0.65;;;7.90;99.90;;;;;;5044016;28;20336;-67
2024/02/19 10:24:52;;;;;;;0.63;0.40;;;7.90;99.90;;;;;;5042333;28;20089;-66
2024/02/19 10:27:18;;;;;;;2.20;0.60;;;8.00;99.90;;;;;;5038819;28;20626;-66
2024/02/19 10:29:46;;;;;;;0.45;0.43;;;8.10;99.90;;;;;;5047247;28;20033;-66
2024/02/19 10:32:11;;;;;;;0.60;0.60;;;8.10;99.90;;;;;;5043124;28;20384;-65
2024/02/19 10:34:37;;;;;;;3.50;0.80;;;8.10;99.80;;;;;;5043103;28;20092;-66
2024/02/19 10:37:05;;;;;;;0.98;0.85;;;8.20;99.50;;;;;;5043015;28;20576;-67
2024/02/19 10:39:31;;;;;;;1.15;0.60;;;8.20;99.60;;;;;;5043343;28;20096;-67
2024/02/19 10:41:58;;;;;;;1.00;0.80;;;8.30;99.70;;;;;;5041167;28;20461;-65
2024/02/19 10:44:24;;;;;;;1.02;0.85;;;8.50;99.70;;;;;;5045495;28;20059;-65
2024/02/19 10:46:51;;;;;;;2.47;0.93;;;8.50;99.10;;;;;;5046029;28;20130;-66
2024/02/19 10:49:19;;;;;;;1.10;0.70;;;8.60;99.10;;;;;;5051180;28;20041;-65
2024/02/19 10:51:45;;;;;;;1.85;0.85;;;8.60;98.30;;;;;;5047646;28;20514;-66
2024/02/19 10:54:11;;;;;;;1.67;0.73;;;8.90;98.50;;;;;;5052112;28;20482;-66
2024/02/19 10:56:38;;;;;;;1.80;0.90;;;9.00;97.90;;;;;;5042292;28;20041;-65
2024/02/19 10:59:06;;;;;;;2.15;0.77;;;9.30;97.90;;;;;;5053018;28;20025;-66
2024/02/19 11:01:40;;;;;;;0.85;0.52;;;9.40;97.00;;;;;;5044533;28;20384;-67
2024/02/19 11:04:17;;;;;;;3.38;1.08;;;9.60;96.90;;;;;;5043627;28;20036;-66
2024/02/19 11:06:46;;;;;;;1.60;0.77;;;9.80;95.00;;;;;;5038208;28;20199;-66
2024/02/19 11:09:12;;;;;;;1.42;0.85;;;9.50;94.80;;;;;;5043749;28;20037;-66
2024/02/19 11:11:46;;;;;;;3.28;0.95;;;9.50;95.30;;;;;;5045402;28;20480;-66
2024/02/19 11:14:14;;;;;;;0.40;0.40;;;9.40;95.10;;;;;;5044564;28;20040;-66
2024/02/19 11:16:39;;;;;;;1.25;0.80;;;9.40;95.00;;;;;;5044261;28;20071;-66
2024/02/19 11:19:04;;;;;;;1.95;1.10;;;9.40;95.50;;;;;;5044319;28;20033;-67
2024/02/19 11:21:30;;;;;;;1.95;1.33;;;9.50;95.80;;;;;;5038277;28;20037;-65
2024/02/19 11:23:56;;;;;;;2.80;1.17;;;9.50;94.80;;;;;;5041703;28;20095;-66
2024/02/19 11:26:21;;;;;;;3.65;1.70;;;9.50;94.60;;;;;;5036132;28;20154;-66
2024/02/19 11:28:53;;;;;;;3.80;1.15;;;9.50;95.80;;;;;;5043016;28;20362;-66
2024/02/19 11:31:19;;;;;;;4.20;1.40;;;9.50;94.70;;;;;;5044154;28;20040;-67
2024/02/19 11:33:49;;;;;;;3.75;1.20;;;9.50;95.00;;;;;;5039340;28;20040;-66
2024/02/19 11:36:14;;;;;;;2.67;1.02;;;9.40;95.20;;;;;;5041045;28;20119;-66
2024/02/19 11:38:40;;;;;;;2.15;1.08;;;9.20;95.20;;;;;;5023566;28;20040;-66
2024/02/19 11:41:09;;;;;;;2.75;1.17;;;9.10;95.40;;;;;;5036616;28;20037;-66
2024/02/19 11:43:35;;;;;;;2.65;1.10;;;9.00;95.90;;;;;;5046517;28;20029;-66
2024/02/19 11:46:01;;;;;;;2.70;1.10;;;9.00;96.60;;;;;;5050496;28;20021;-66
2024/02/19 11:48:27;;;;;;;2.53;1.00;;;8.90;97.00;;;;;;5052341;28;20033;-66
2024/02/19 11:50:53;;;;;;;3.70;1.65;;;8.80;96.70;;;;;;5049516;28;20355;-65
2024/02/19 11:53:21;;;;;;;2.03;1.20;;;8.70;97.20;;;;;;5045732;28;20048;-66
2024/02/19 11:56:00;;;;;;;1.80;1.08;;;8.80;97.50;;;;;;5045699;28;20033;-66
2024/02/19 11:58:29;;;;;;;1.90;1.40;;;8.60;97.70;;;;;;5048707;28;20040;-65
2024/02/19 12:00:59;;;;;;;1.38;1.10;;;8.60;97.80;;;;;;5045271;28;20029;-66
2024/02/19 12:03:27;;;;;;;3.58;1.45;;;8.50;98.40;;;;;;5047730;28;20052;-66
2024/02/19 12:05:57;;;;;;;3.55;1.40;;;8.40;98.80;;;;;;5048828;28;20042;-66
2024/02/19 12:08:22;;;;;;;3.97;1.17;;;8.40;99.10;;;;;;5042594;28;20036;-66
2024/02/19 12:10:48;;;;;;;4.32;1.25;;;8.50;99.40;;;;;;5045750;28;20041;-66
2024/02/19 12:13:15;;;;;;;1.60;0.98;;;8.60;99.50;;;;;;5045759;28;20081;-65
2024/02/19 12:15:51;;;;;;;2.53;1.05;;;8.60;99.40;;;;;;5043377;28;20531;-66
2024/02/19 12:18:17;;;;;;;2.17;1.10;;;8.60;99.50;;;;;;5040013;28;20039;-67
2024/02/19 12:20:43;;;;;;;3.83;1.65;;;8.70;99.30;;;;;;5043434;28;20060;-65
2024/02/19 12:23:09;;;;;;;3.20;1.20;;;8.70;99.10;;;;;;5045617;28;20025;-66
2024/02/19 12:25:34;;;;;;;1.40;1.08;;;8.70;99.00;;;;;;5041598;28;20037;-66
2024/02/19 12:28:00;;;;;;;2.60;1.13;;;8.70;99.00;;;;;;5041957;28;20378;-67
2024/02/19 12:30:25;;;;;;;3.25;1.15;;;8.70;99.10;;;;;;5047902;28;20479;-66
2024/02/19 12:32:53;;;;;;;2.25;1.33;;;8.70;98.80;;;;;;5046009;28;20034;-65
2024/02/19 12:35:19;;;;;;;2.63;1.17;;;8.60;98.90;;;;;;5045030;28;20410;-65
2024/02/19 12:37:45;;;;;;;2.42;0.93;;;8.60;98.80;;;;;;5043708;28;20105;-65
2024/02/19 12:40:13;;;;;;;1.80;0.85;;;8.60;98.70;;;;;;5042751;28;20038;-65
2024/02/19 12:42:39;;;;;;;1.63;0.98;;;8.70;98.60;;;;;;5046904;28;20249;-66
2024/02/19 12:45:06;;;;;;;1.85;1.00;;;8.70;98.30;;;;;;5047219;28;20438;-66
2024/02/19 12:47:31;;;;;;;1.10;0.80;;;8.90;98.40;;;;;;5043703;28;20044;-66
2024/02/19 12:49:57;;;;;;;2.35;1.15;;;8.90;98.10;;;;;;5043996;28;20041;-65
2024/02/19 12:52:27;;;;;;;2.85;1.05;;;9.00;97.70;;;;;;5046795;28;20025;-65